createdAt,value
2022-10-31T00:00:12.567Z,176.47
2022-10-31T00:01:12.511Z,176.47
2022-10-31T00:02:12.581Z,176.47
2022-10-31T00:03:12.511Z,176.47
2022-10-31T00:04:12.515Z,176.47
2022-10-31T00:05:12.518Z,176.47
2022-10-31T00:06:12.514Z,176.47
2022-10-31T00:07:12.518Z,176.47
2022-10-31T00:08:12.518Z,176.47
2022-10-31T00:09:12.521Z,176.47
2022-10-31T00:10:12.508Z,176.47
2022-10-31T00:11:12.522Z,176.47
2022-10-31T00:12:12.508Z,176.47
2022-10-31T00:13:12.607Z,176.47
2022-10-31T00:14:12.510Z,176.47
2022-10-31T00:15:12.519Z,176.47
2022-10-31T00:16:12.510Z,176.47
2022-10-31T00:17:12.524Z,176.47
2022-10-31T00:18:12.552Z,176.47
2022-10-31T00:19:12.519Z,176.47
2022-10-31T00:20:12.520Z,176.47
2022-10-31T00:21:12.525Z,176.47
2022-10-31T00:22:12.521Z,176.47
2022-10-31T00:23:12.517Z,176.47
2022-10-31T00:24:12.518Z,176.47
2022-10-31T00:25:12.517Z,176.47
2022-10-31T00:26:12.524Z,176.47
2022-10-31T00:27:12.525Z,176.47
2022-10-31T00:28:12.559Z,176.47
2022-10-31T00:29:12.530Z,176.47
2022-10-31T00:30:12.521Z,176.47
2022-10-31T00:31:12.533Z,176.47
2022-10-31T00:32:12.526Z,176.47
2022-10-31T00:33:12.518Z,176.47
2022-10-31T00:34:12.544Z,176.47
2022-10-31T00:35:12.523Z,176.47
2022-10-31T00:36:12.526Z,176.47
2022-10-31T00:37:12.534Z,176.47
2022-10-31T00:38:12.528Z,176.47
2022-10-31T00:39:12.533Z,176.47
2022-10-31T00:40:12.533Z,176.47
2022-10-31T00:41:12.536Z,176.47
2022-10-31T00:42:12.524Z,176.47
2022-10-31T00:44:12.530Z,176.47
2022-10-31T00:45:12.537Z,176.47
2022-10-31T00:46:12.526Z,176.47
2022-10-31T00:47:12.529Z,176.47
2022-10-31T00:48:12.522Z,176.47
2022-10-31T00:49:12.541Z,176.47
2022-10-31T00:50:12.563Z,176.47
2022-10-31T00:51:12.535Z,176.47
2022-10-31T00:52:12.542Z,176.47
2022-10-31T00:53:12.544Z,176.47
2022-10-31T00:54:12.544Z,176.47
2022-10-31T00:55:12.537Z,176.47
2022-10-31T00:56:12.541Z,176.47
2022-10-31T00:57:12.547Z,176.47
2022-10-31T00:58:12.542Z,176.47
2022-10-31T00:59:12.547Z,176.47
2022-10-31T01:00:12.551Z,176.47
2022-10-31T01:01:12.665Z,176.47
2022-10-31T01:02:12.688Z,176.47
2022-10-31T01:03:12.540Z,176.47
2022-10-31T01:04:12.552Z,176.47
2022-10-31T01:05:12.545Z,176.47
2022-10-31T01:06:12.567Z,176.47
2022-10-31T01:07:12.545Z,176.47
2022-10-31T01:08:12.544Z,176.47
2022-10-31T01:09:12.555Z,176.47
2022-10-31T01:10:12.550Z,176.47
2022-10-31T01:11:12.554Z,176.47
2022-10-31T01:12:12.552Z,176.47
2022-10-31T01:13:12.592Z,176.47
2022-10-31T01:14:12.561Z,176.47
2022-10-31T01:15:12.565Z,176.47
2022-10-31T01:16:12.557Z,176.47
2022-10-31T01:17:12.558Z,176.47
2022-10-31T01:18:12.559Z,176.47
2022-10-31T01:19:12.560Z,176.47
2022-10-31T01:20:12.552Z,176.47
2022-10-31T01:21:12.560Z,176.47
2022-10-31T01:22:12.587Z,176.47
2022-10-31T01:23:12.554Z,176.47
2022-10-31T01:24:12.562Z,176.47
2022-10-31T01:25:12.569Z,176.47
2022-10-31T01:26:12.574Z,176.47
2022-10-31T01:27:12.570Z,176.47
2022-10-31T01:28:12.584Z,176.47
2022-10-31T01:29:12.563Z,176.47
2022-10-31T01:30:12.563Z,176.47
2022-10-31T01:31:12.570Z,176.47
2022-10-31T01:32:12.570Z,176.47
2022-10-31T01:33:12.571Z,176.47
2022-10-31T01:34:12.571Z,176.47
2022-10-31T01:35:12.572Z,176.47
2022-10-31T01:36:12.568Z,176.47
2022-10-31T01:37:12.574Z,176.47
2022-10-31T01:38:12.586Z,176.47
2022-10-31T01:39:12.573Z,176.47
2022-10-31T01:40:12.580Z,176.47
2022-10-31T01:41:12.588Z,176.47
2022-10-31T01:42:12.574Z,176.47
2022-10-31T01:43:12.630Z,176.47
2022-10-31T01:44:12.583Z,176.47
2022-10-31T01:45:12.579Z,176.47
2022-10-31T01:46:12.581Z,176.47
2022-10-31T01:47:12.589Z,176.47
2022-10-31T01:48:12.583Z,176.47
2022-10-31T01:49:12.582Z,176.47
2022-10-31T01:50:12.580Z,176.47
2022-10-31T01:51:12.586Z,176.47
2022-10-31T01:52:12.576Z,176.47
2022-10-31T01:53:12.572Z,176.47
2022-10-31T01:54:12.596Z,176.47
2022-10-31T01:55:12.585Z,176.47
2022-10-31T01:56:12.585Z,176.47
2022-10-31T01:57:12.586Z,176.47
2022-10-31T01:58:12.648Z,176.47
2022-10-31T01:59:12.590Z,176.47
2022-10-31T02:00:12.600Z,176.47
2022-10-31T02:01:12.718Z,176.47
2022-10-31T02:02:12.783Z,176.47
2022-10-31T02:03:12.593Z,176.47
2022-10-31T02:04:12.596Z,176.47
2022-10-31T02:05:12.600Z,176.47
2022-10-31T02:06:12.584Z,176.47
2022-10-31T02:07:12.595Z,176.47
2022-10-31T02:08:12.587Z,176.47
2022-10-31T02:09:12.605Z,176.47
2022-10-31T02:10:12.611Z,176.47
2022-10-31T02:11:12.594Z,176.47
2022-10-31T02:12:12.598Z,176.47
2022-10-31T02:13:12.638Z,176.47
2022-10-31T02:14:12.598Z,176.47
2022-10-31T02:15:12.607Z,176.47
2022-10-31T02:16:12.601Z,176.47
2022-10-31T02:17:12.599Z,176.47
2022-10-31T02:18:12.604Z,176.47
2022-10-31T02:19:12.621Z,176.47
2022-10-31T02:20:12.597Z,176.47
2022-10-31T02:21:12.613Z,176.47
2022-10-31T02:22:12.605Z,176.47
2022-10-31T02:23:12.602Z,176.47
2022-10-31T02:24:12.603Z,176.47
2022-10-31T02:25:12.611Z,176.47
2022-10-31T02:26:12.621Z,176.47
2022-10-31T02:27:12.613Z,176.47
2022-10-31T02:28:12.656Z,176.47
2022-10-31T02:29:12.614Z,176.47
2022-10-31T02:30:12.612Z,176.47
2022-10-31T02:31:12.611Z,176.47
2022-10-31T02:32:12.609Z,176.47
2022-10-31T02:33:12.617Z,176.47
2022-10-31T02:34:12.612Z,176.47
2022-10-31T02:35:12.608Z,176.47
2022-10-31T02:36:12.613Z,176.47
2022-10-31T02:37:12.614Z,176.47
2022-10-31T02:38:12.615Z,176.47
2022-10-31T02:39:12.609Z,176.47
2022-10-31T02:40:12.620Z,176.47
2022-10-31T02:41:12.622Z,176.47
2022-10-31T02:42:12.639Z,176.47
2022-10-31T02:44:12.621Z,176.47
2022-10-31T02:45:12.624Z,176.47
2022-10-31T02:46:12.623Z,176.47
2022-10-31T02:47:12.626Z,176.47
2022-10-31T02:48:12.625Z,176.47
2022-10-31T02:49:12.623Z,176.47
2022-10-31T02:50:12.625Z,176.47
2022-10-31T02:51:12.634Z,176.47
2022-10-31T02:52:12.621Z,176.47
2022-10-31T02:53:12.630Z,176.47
2022-10-31T02:54:12.634Z,176.47
2022-10-31T02:55:12.629Z,176.47
2022-10-31T02:56:12.628Z,176.47
2022-10-31T02:57:12.629Z,176.47
2022-10-31T02:58:12.692Z,176.47
2022-10-31T02:59:12.626Z,176.47
2022-10-31T03:00:12.638Z,176.47
2022-10-31T03:01:12.730Z,176.47
2022-10-31T03:02:12.786Z,176.47
2022-10-31T03:03:12.628Z,176.47
2022-10-31T03:04:12.640Z,176.47
2022-10-31T03:05:12.625Z,176.47
2022-10-31T03:06:12.640Z,176.47
2022-10-31T03:07:12.633Z,176.47
2022-10-31T03:08:12.637Z,176.47
2022-10-31T03:09:12.636Z,176.47
2022-10-31T03:10:12.640Z,176.47
2022-10-31T03:11:12.645Z,176.47
2022-10-31T03:12:12.633Z,176.47
2022-10-31T03:13:12.734Z,176.47
2022-10-31T03:14:12.659Z,176.47
2022-10-31T03:15:12.641Z,176.47
2022-10-31T03:16:12.644Z,176.47
2022-10-31T03:17:12.648Z,176.47
2022-10-31T03:18:12.640Z,176.47
2022-10-31T03:19:12.651Z,176.47
2022-10-31T03:20:12.645Z,176.47
2022-10-31T03:21:12.645Z,176.47
2022-10-31T03:22:12.637Z,176.47
2022-10-31T03:23:12.650Z,176.47
2022-10-31T03:24:12.644Z,176.47
2022-10-31T03:25:12.653Z,176.47
2022-10-31T03:26:12.641Z,176.47
2022-10-31T03:27:12.646Z,176.47
2022-10-31T03:28:12.698Z,176.47
2022-10-31T03:29:12.663Z,176.47
2022-10-31T03:30:12.673Z,176.47
2022-10-31T03:31:12.650Z,176.47
2022-10-31T03:32:12.648Z,176.47
2022-10-31T03:33:12.646Z,176.47
2022-10-31T03:34:12.645Z,176.47
2022-10-31T03:35:12.654Z,176.47
2022-10-31T03:36:12.644Z,176.47
2022-10-31T03:37:12.646Z,176.47
2022-10-31T03:38:12.649Z,176.47
2022-10-31T03:39:12.656Z,176.47
2022-10-31T03:40:12.653Z,176.47
2022-10-31T03:41:12.647Z,176.47
2022-10-31T03:42:12.654Z,176.47
2022-10-31T03:43:12.695Z,176.47
2022-10-31T03:44:12.653Z,176.47
2022-10-31T03:45:12.651Z,176.47
2022-10-31T03:46:12.670Z,176.47
2022-10-31T03:47:12.652Z,176.47
2022-10-31T03:48:12.645Z,176.47
2022-10-31T03:49:12.664Z,176.47
2022-10-31T03:50:12.650Z,176.47
2022-10-31T03:51:12.658Z,176.47
2022-10-31T03:52:12.655Z,176.47
2022-10-31T03:53:12.657Z,176.47
2022-10-31T03:54:12.655Z,176.47
2022-10-31T03:55:12.656Z,176.47
2022-10-31T03:56:12.663Z,176.47
2022-10-31T03:57:12.651Z,176.47
2022-10-31T03:58:12.734Z,176.47
2022-10-31T03:59:12.669Z,176.47
2022-10-31T04:00:12.660Z,176.47
2022-10-31T04:01:12.787Z,176.47
2022-10-31T04:02:12.852Z,176.47
2022-10-31T04:03:12.666Z,176.47
2022-10-31T04:04:12.675Z,176.47
2022-10-31T04:05:12.668Z,176.47
2022-10-31T04:06:12.672Z,176.47
2022-10-31T04:07:12.669Z,176.47
2022-10-31T04:08:12.668Z,176.47
2022-10-31T04:09:12.662Z,176.47
2022-10-31T04:10:12.666Z,176.47
2022-10-31T04:11:12.671Z,176.47
2022-10-31T04:12:12.657Z,176.47
2022-10-31T04:13:12.693Z,176.47
2022-10-31T04:14:12.671Z,176.47
2022-10-31T04:15:12.669Z,176.47
2022-10-31T04:16:14.260Z,176.47
2022-10-31T04:17:12.667Z,176.47
2022-10-31T04:18:12.687Z,176.47
2022-10-31T04:19:12.665Z,176.47
2022-10-31T04:20:12.659Z,176.47
2022-10-31T04:21:12.669Z,176.47
2022-10-31T04:22:12.669Z,176.47
2022-10-31T04:23:14.582Z,176.47
2022-10-31T04:24:12.668Z,176.47
2022-10-31T04:25:12.669Z,176.47
2022-10-31T04:26:12.678Z,176.47
2022-10-31T04:27:12.667Z,176.47
2022-10-31T04:28:12.703Z,176.47
2022-10-31T04:29:12.663Z,176.47
2022-10-31T04:30:12.664Z,176.47
2022-10-31T04:31:12.680Z,176.47
2022-10-31T04:32:12.666Z,176.47
2022-10-31T04:33:12.671Z,176.47
2022-10-31T04:34:12.693Z,176.47
2022-10-31T04:35:12.665Z,176.47
2022-10-31T04:36:12.677Z,176.47
2022-10-31T04:37:12.674Z,176.47
2022-10-31T04:38:12.661Z,176.47
2022-10-31T04:39:12.673Z,176.47
2022-10-31T04:40:12.675Z,176.47
2022-10-31T04:41:12.680Z,176.47
2022-10-31T04:42:12.673Z,176.47
2022-10-31T04:43:12.741Z,176.47
2022-10-31T04:44:12.676Z,176.47
2022-10-31T04:45:14.330Z,176.47
2022-10-31T04:46:12.666Z,176.47
2022-10-31T04:47:12.671Z,176.47
2022-10-31T04:48:12.684Z,176.47
2022-10-31T04:49:12.666Z,176.47
2022-10-31T04:50:12.687Z,176.47
2022-10-31T04:51:12.670Z,176.47
2022-10-31T04:52:12.682Z,176.47
2022-10-31T04:53:12.678Z,176.47
2022-10-31T04:54:12.674Z,176.47
2022-10-31T04:55:12.678Z,176.47
2022-10-31T04:56:12.680Z,176.47
2022-10-31T04:57:12.689Z,176.47
2022-10-31T04:58:12.714Z,176.47
2022-10-31T04:59:12.679Z,176.47
2022-10-31T05:00:12.684Z,176.47
2022-10-31T05:01:12.827Z,176.47
2022-10-31T05:02:12.799Z,176.47
2022-10-31T05:03:12.677Z,176.47
2022-10-31T05:04:12.670Z,176.47
2022-10-31T05:05:12.686Z,176.47
2022-10-31T05:06:12.705Z,176.47
2022-10-31T05:07:12.680Z,176.47
2022-10-31T05:08:12.688Z,176.47
2022-10-31T05:09:12.696Z,176.47
2022-10-31T05:10:12.685Z,176.47
2022-10-31T05:11:12.677Z,176.47
2022-10-31T05:12:12.687Z,176.47
2022-10-31T05:13:12.751Z,176.47
2022-10-31T05:14:12.691Z,176.47
2022-10-31T05:15:12.682Z,176.47
2022-10-31T05:16:12.681Z,176.47
2022-10-31T05:17:12.685Z,176.47
2022-10-31T05:18:12.681Z,176.47
2022-10-31T05:19:12.693Z,176.47
2022-10-31T05:20:12.684Z,176.47
2022-10-31T05:21:12.690Z,176.47
2022-10-31T05:22:12.702Z,176.47
2022-10-31T05:23:12.687Z,176.47
2022-10-31T05:24:12.683Z,176.47
2022-10-31T05:25:12.685Z,176.47
2022-10-31T05:26:12.676Z,176.47
2022-10-31T05:27:12.691Z,176.47
2022-10-31T05:28:12.690Z,176.47
2022-10-31T05:29:12.690Z,176.47
2022-10-31T05:30:12.697Z,176.47
2022-10-31T05:31:12.689Z,176.47
2022-10-31T05:32:12.690Z,176.47
2022-10-31T05:33:12.683Z,176.47
2022-10-31T05:34:12.695Z,176.47
2022-10-31T05:35:12.685Z,176.47
2022-10-31T05:36:12.691Z,176.47
2022-10-31T05:37:12.679Z,176.47
2022-10-31T05:38:12.712Z,176.47
2022-10-31T05:39:12.692Z,176.47
2022-10-31T05:40:12.695Z,176.47
2022-10-31T05:41:12.690Z,176.47
2022-10-31T05:42:12.695Z,176.47
2022-10-31T05:43:12.687Z,176.47
2022-10-31T05:44:12.685Z,176.47
2022-10-31T05:45:12.685Z,176.47
2022-10-31T05:46:12.693Z,176.47
2022-10-31T05:47:12.694Z,176.47
2022-10-31T05:48:12.683Z,176.47
2022-10-31T05:49:12.688Z,176.47
2022-10-31T05:50:12.680Z,176.47
2022-10-31T05:51:12.690Z,176.47
2022-10-31T05:52:12.689Z,176.47
2022-10-31T05:53:12.682Z,176.47
2022-10-31T05:54:15.784Z,176.47
2022-10-31T05:55:12.698Z,176.47
2022-10-31T05:56:12.699Z,176.47
2022-10-31T05:57:12.694Z,176.47
2022-10-31T05:58:12.691Z,176.47
2022-10-31T05:59:12.694Z,176.47
2022-10-31T06:00:12.696Z,176.47
2022-10-31T06:01:12.793Z,176.47
2022-10-31T06:02:12.708Z,176.47
2022-10-31T06:03:12.721Z,176.47
2022-10-31T06:04:12.768Z,176.47
2022-10-31T06:05:12.792Z,176.47
2022-10-31T06:06:12.713Z,176.47
2022-10-31T06:07:12.721Z,176.47
2022-10-31T06:08:12.706Z,176.47
2022-10-31T06:09:12.714Z,176.47
2022-10-31T06:10:12.731Z,176.47
2022-10-31T06:11:12.710Z,176.47
2022-10-31T06:12:12.704Z,176.47
2022-10-31T06:13:12.713Z,176.47
2022-10-31T06:14:12.717Z,176.47
2022-10-31T06:15:12.712Z,176.47
2022-10-31T06:16:12.708Z,176.47
2022-10-31T06:17:12.723Z,176.47
2022-10-31T06:18:12.710Z,176.47
2022-10-31T06:19:12.718Z,176.47
2022-10-31T06:20:12.712Z,176.47
2022-10-31T06:21:14.924Z,176.47
2022-10-31T06:22:12.718Z,176.47
2022-10-31T06:23:12.723Z,176.47
2022-10-31T06:24:12.727Z,176.47
2022-10-31T06:25:12.723Z,176.47
2022-10-31T06:26:12.743Z,176.47
2022-10-31T06:27:12.718Z,176.47
2022-10-31T06:28:12.718Z,176.47
2022-10-31T06:29:12.727Z,176.47
2022-10-31T06:30:12.733Z,176.47
2022-10-31T06:31:12.732Z,176.47
2022-10-31T06:32:12.725Z,176.47
2022-10-31T06:33:12.736Z,176.47
2022-10-31T06:34:12.726Z,176.47
2022-10-31T06:35:12.738Z,176.47
2022-10-31T06:36:12.800Z,176.47
2022-10-31T06:37:12.754Z,176.47
2022-10-31T06:38:12.741Z,176.47
2022-10-31T06:39:12.741Z,176.47
2022-10-31T06:40:12.735Z,176.47
2022-10-31T06:41:12.750Z,176.47
2022-10-31T06:42:12.768Z,176.47
2022-10-31T06:43:12.743Z,176.47
2022-10-31T06:44:12.748Z,176.47
2022-10-31T06:45:12.749Z,176.47
2022-10-31T06:46:12.756Z,176.47
2022-10-31T06:47:12.752Z,176.47
2022-10-31T06:48:16.967Z,176.47
2022-10-31T06:49:12.758Z,176.47
2022-10-31T06:50:12.754Z,176.47
2022-10-31T06:51:12.756Z,176.47
2022-10-31T06:52:12.760Z,176.47
2022-10-31T06:53:12.867Z,176.47
2022-10-31T06:54:12.762Z,176.47
2022-10-31T06:55:12.761Z,176.47
2022-10-31T06:56:12.761Z,176.47
2022-10-31T06:57:12.768Z,176.47
2022-10-31T06:58:12.781Z,176.47
2022-10-31T06:59:12.765Z,176.47
2022-10-31T07:00:12.786Z,176.47
2022-10-31T07:01:12.871Z,176.47
2022-10-31T07:02:12.945Z,176.47
2022-10-31T07:03:12.799Z,176.47
2022-10-31T07:04:12.776Z,176.47
2022-10-31T07:05:12.777Z,176.47
2022-10-31T07:06:12.783Z,176.47
2022-10-31T07:07:12.787Z,176.47
2022-10-31T07:08:12.785Z,176.47
2022-10-31T07:09:12.789Z,176.47
2022-10-31T07:11:12.790Z,176.47
2022-10-31T07:12:12.790Z,176.47
2022-10-31T07:13:12.784Z,176.47
2022-10-31T07:14:12.813Z,176.47
2022-10-31T07:15:12.788Z,176.47
2022-10-31T07:16:12.818Z,176.47
2022-10-31T07:17:12.803Z,176.47
2022-10-31T07:18:12.796Z,176.47
2022-10-31T07:19:12.803Z,176.47
2022-10-31T07:20:12.795Z,176.47
2022-10-31T07:21:12.806Z,176.47
2022-10-31T07:22:12.793Z,176.47
2022-10-31T07:23:12.806Z,176.47
2022-10-31T07:24:12.807Z,176.47
2022-10-31T07:25:12.807Z,176.47
2022-10-31T07:26:12.802Z,176.47
2022-10-31T07:27:12.807Z,176.47
2022-10-31T07:28:12.805Z,176.47
2022-10-31T07:29:12.813Z,176.47
2022-10-31T07:30:12.833Z,176.47
2022-10-31T07:31:12.808Z,176.47
2022-10-31T07:32:12.813Z,176.47
2022-10-31T07:33:12.812Z,176.47
2022-10-31T07:34:12.818Z,176.47
2022-10-31T07:35:12.822Z,176.47
2022-10-31T07:36:12.811Z,176.47
2022-10-31T07:37:12.817Z,176.47
2022-10-31T07:38:12.833Z,176.47
2022-10-31T07:39:12.818Z,176.47
2022-10-31T07:40:12.819Z,176.47
2022-10-31T07:41:12.831Z,176.47
2022-10-31T07:42:12.825Z,176.47
2022-10-31T07:43:14.377Z,176.47
2022-10-31T07:44:12.821Z,176.47
2022-10-31T07:45:12.835Z,176.47
2022-10-31T07:46:12.846Z,176.47
2022-10-31T07:47:12.830Z,176.47
2022-10-31T07:48:12.836Z,176.47
2022-10-31T07:49:12.836Z,176.47
2022-10-31T07:50:12.827Z,176.47
2022-10-31T07:51:12.830Z,176.47
2022-10-31T07:52:12.835Z,176.47
2022-10-31T07:53:12.834Z,176.47
2022-10-31T07:54:12.834Z,176.47
2022-10-31T07:55:12.844Z,176.47
2022-10-31T07:56:12.836Z,176.47
2022-10-31T07:57:12.835Z,176.47
2022-10-31T07:58:12.847Z,176.47
2022-10-31T07:59:12.856Z,176.47
2022-10-31T08:00:12.841Z,176.47
2022-10-31T08:02:12.858Z,176.47
2022-10-31T08:03:12.839Z,176.47
2022-10-31T08:04:12.835Z,176.47
2022-10-31T08:05:12.841Z,176.47
2022-10-31T08:06:12.843Z,176.47
2022-10-31T08:07:12.850Z,176.47
2022-10-31T08:08:12.843Z,176.47
2022-10-31T08:09:12.851Z,176.47
2022-10-31T08:10:12.843Z,176.47
2022-10-31T08:11:12.845Z,176.47
2022-10-31T08:12:12.849Z,176.47
2022-10-31T08:13:12.847Z,176.47
2022-10-31T08:14:12.852Z,176.47
2022-10-31T08:15:12.854Z,176.47
2022-10-31T08:16:12.848Z,176.47
2022-10-31T08:17:12.847Z,176.47
2022-10-31T08:18:12.864Z,176.47
2022-10-31T08:19:12.867Z,176.47
2022-10-31T08:20:12.871Z,176.47
2022-10-31T08:21:12.857Z,176.47
2022-10-31T08:22:12.851Z,176.47
2022-10-31T08:23:12.866Z,176.47
2022-10-31T08:24:12.863Z,176.47
2022-10-31T08:25:12.861Z,176.47
2022-10-31T08:26:12.868Z,176.47
2022-10-31T08:27:12.873Z,176.47
2022-10-31T08:28:12.863Z,176.47
2022-10-31T08:29:12.861Z,176.47
2022-10-31T08:30:12.863Z,176.47
2022-10-31T08:31:12.871Z,176.47
2022-10-31T08:32:12.861Z,176.47
2022-10-31T08:33:12.874Z,176.47
2022-10-31T08:34:12.885Z,176.47
2022-10-31T08:35:12.857Z,176.47
2022-10-31T08:36:12.868Z,176.47
2022-10-31T08:37:12.876Z,176.47
2022-10-31T08:38:12.868Z,176.47
2022-10-31T08:39:12.884Z,176.47
2022-10-31T08:40:12.872Z,176.47
2022-10-31T08:41:12.853Z,176.47
2022-10-31T08:42:12.869Z,176.47
2022-10-31T08:43:12.875Z,176.47
2022-10-31T08:44:12.867Z,176.47
2022-10-31T08:45:12.878Z,176.47
2022-10-31T08:46:12.884Z,176.47
2022-10-31T08:47:12.875Z,176.47
2022-10-31T08:48:12.884Z,176.47
2022-10-31T08:49:12.890Z,176.47
2022-10-31T08:50:12.907Z,176.47
2022-10-31T08:51:12.872Z,176.47
2022-10-31T08:52:14.500Z,176.47
2022-10-31T08:53:12.868Z,176.47
2022-10-31T08:54:12.871Z,176.47
2022-10-31T08:55:12.879Z,176.47
2022-10-31T08:56:12.883Z,176.47
2022-10-31T08:57:12.870Z,176.47
2022-10-31T08:58:12.876Z,176.47
2022-10-31T08:59:12.883Z,176.47
2022-10-31T09:00:12.883Z,176.47
2022-10-31T09:01:12.982Z,176.47
2022-10-31T09:02:12.948Z,176.47
2022-10-31T09:03:12.877Z,176.47
2022-10-31T09:04:12.888Z,176.47
2022-10-31T09:05:12.881Z,176.47
2022-10-31T09:06:12.945Z,176.47
2022-10-31T09:07:20.399Z,231.53
2022-10-31T09:08:16.172Z,220.24
2022-10-31T09:09:12.880Z,213.18
2022-10-31T09:10:12.890Z,218.82
2022-10-31T09:11:12.883Z,218.82
2022-10-31T09:12:12.882Z,225.88
2022-10-31T09:13:12.883Z,223.06
2022-10-31T09:14:12.889Z,192
2022-10-31T09:15:12.894Z,192
2022-10-31T09:16:12.894Z,192
2022-10-31T09:17:12.892Z,192
2022-10-31T09:18:12.905Z,192
2022-10-31T09:19:12.893Z,192
2022-10-31T09:20:12.897Z,192
2022-10-31T09:21:12.909Z,192
2022-10-31T09:22:12.924Z,192
2022-10-31T09:23:12.895Z,192
2022-10-31T09:24:12.898Z,192
2022-10-31T09:25:12.906Z,192
2022-10-31T09:26:12.905Z,192
2022-10-31T09:27:12.897Z,192
2022-10-31T09:28:12.903Z,192
2022-10-31T09:29:12.904Z,192
2022-10-31T09:30:12.896Z,192
2022-10-31T09:31:12.920Z,192
2022-10-31T09:32:12.907Z,192
2022-10-31T09:33:12.905Z,192
2022-10-31T09:34:12.905Z,192
2022-10-31T09:36:12.915Z,192
2022-10-31T09:37:12.920Z,192
2022-10-31T09:38:12.931Z,192
2022-10-31T09:39:12.921Z,192
2022-10-31T09:40:12.935Z,192
2022-10-31T09:41:13.584Z,166.59
2022-10-31T09:42:12.914Z,139.76
2022-10-31T09:43:12.927Z,148.24
2022-10-31T09:44:12.929Z,204.71
2022-10-31T09:45:12.919Z,204.71
2022-10-31T09:46:12.920Z,204.71
2022-10-31T09:47:12.932Z,204.71
2022-10-31T09:48:12.921Z,204.71
2022-10-31T09:49:13.008Z,204.71
2022-10-31T09:50:12.918Z,204.71
2022-10-31T09:51:12.937Z,204.71
2022-10-31T09:52:12.955Z,204.71
2022-10-31T09:53:12.935Z,204.71
2022-10-31T09:54:12.956Z,204.71
2022-10-31T09:55:12.929Z,190.59
2022-10-31T09:56:12.937Z,190.59
2022-10-31T09:57:12.939Z,194.82
2022-10-31T09:58:12.946Z,183.53
2022-10-31T09:59:12.947Z,184.94
2022-10-31T10:00:12.943Z,182.12
2022-10-31T10:01:13.091Z,179.29
2022-10-31T10:02:13.010Z,179.29
2022-10-31T10:03:12.940Z,179.29
2022-10-31T10:04:14.658Z,179.29
2022-10-31T10:05:12.956Z,179.29
2022-10-31T10:06:12.954Z,208.94
2022-10-31T10:07:12.954Z,176.47
2022-10-31T10:08:12.964Z,153.88
2022-10-31T10:09:12.997Z,153.88
2022-10-31T10:10:12.982Z,153.88
2022-10-31T10:11:12.959Z,153.88
2022-10-31T10:12:12.960Z,153.88
2022-10-31T10:13:13.255Z,193.41
2022-10-31T10:14:12.961Z,193.41
2022-10-31T10:15:12.967Z,189.18
2022-10-31T10:16:12.969Z,186.35
2022-10-31T10:17:12.977Z,169.41
2022-10-31T10:18:12.967Z,169.41
2022-10-31T10:19:12.980Z,169.41
2022-10-31T10:20:12.970Z,169.41
2022-10-31T10:21:12.961Z,162.35
2022-10-31T10:22:12.972Z,162.35
2022-10-31T10:23:12.977Z,162.35
2022-10-31T10:24:12.983Z,162.35
2022-10-31T10:25:12.977Z,162.35
2022-10-31T10:26:13.002Z,162.35
2022-10-31T10:27:12.992Z,162.35
2022-10-31T10:28:12.980Z,162.35
2022-10-31T10:29:12.995Z,187.76
2022-10-31T10:30:12.982Z,180.71
2022-10-31T10:31:12.981Z,180.71
2022-10-31T10:32:12.990Z,180.71
2022-10-31T10:33:12.995Z,180.71
2022-10-31T10:34:12.994Z,158.12
2022-10-31T10:35:12.991Z,184.94
2022-10-31T10:36:12.989Z,160.94
2022-10-31T10:37:12.988Z,193.41
2022-10-31T10:38:12.992Z,216
2022-10-31T10:39:12.999Z,165.18
2022-10-31T10:40:12.988Z,168
2022-10-31T10:41:12.989Z,168
2022-10-31T10:42:13.017Z,168
2022-10-31T10:43:12.995Z,168
2022-10-31T10:44:12.996Z,168
2022-10-31T10:45:13.002Z,168
2022-10-31T10:46:13.003Z,160.94
2022-10-31T10:47:12.997Z,184.94
2022-10-31T10:48:13.004Z,189.18
2022-10-31T10:49:13.000Z,158.12
2022-10-31T10:50:13.012Z,158.12
2022-10-31T10:51:20.345Z,192
2022-10-31T10:52:26.885Z,175.06
2022-10-31T10:53:12.995Z,163.76
2022-10-31T10:54:13.003Z,163.76
2022-10-31T10:55:13.009Z,163.76
2022-10-31T10:56:12.998Z,163.76
2022-10-31T10:57:13.014Z,163.76
2022-10-31T10:58:13.028Z,169.41
2022-10-31T10:59:13.016Z,169.41
2022-10-31T11:00:13.013Z,169.41
2022-10-31T11:01:13.194Z,169.41
2022-10-31T11:02:13.009Z,169.41
2022-10-31T11:03:13.022Z,211.76
2022-10-31T11:04:13.019Z,192
2022-10-31T11:05:13.014Z,241.41
2022-10-31T11:06:13.029Z,218.82
2022-10-31T11:07:13.026Z,162.35
2022-10-31T11:08:13.031Z,129.88
2022-10-31T11:09:13.017Z,184.94
2022-10-31T11:10:13.012Z,194.82
2022-10-31T11:11:13.032Z,172.24
2022-10-31T11:12:13.024Z,139.76
2022-10-31T11:13:13.033Z,196.24
2022-10-31T11:14:13.063Z,201.88
2022-10-31T11:15:13.026Z,192
2022-10-31T11:16:13.035Z,128.47
2022-10-31T11:17:13.045Z,196.24
2022-10-31T11:18:13.095Z,210.35
2022-10-31T11:19:13.070Z,199.06
2022-10-31T11:20:14.757Z,114.35
2022-10-31T11:21:13.049Z,114.35
2022-10-31T11:22:13.047Z,135.53
2022-10-31T11:23:13.035Z,81.88
2022-10-31T11:24:13.040Z,81.88
2022-10-31T11:25:13.040Z,81.88
2022-10-31T11:26:13.056Z,81.88
2022-10-31T11:27:13.050Z,81.88
2022-10-31T11:28:13.041Z,211.76
2022-10-31T11:29:13.053Z,180.71
2022-10-31T11:30:13.065Z,183.53
2022-10-31T11:31:13.041Z,196.24
2022-10-31T11:32:13.048Z,175.06
2022-10-31T11:33:13.052Z,166.59
2022-10-31T11:34:13.051Z,131.29
2022-10-31T11:35:13.052Z,155.29
2022-10-31T11:36:13.050Z,170.82
2022-10-31T11:37:13.056Z,180.71
2022-10-31T11:38:13.055Z,183.53
2022-10-31T11:39:13.064Z,182.12
2022-10-31T11:40:13.052Z,177.88
2022-10-31T11:41:13.069Z,184.94
2022-10-31T11:42:13.071Z,172.24
2022-10-31T11:43:13.068Z,170.82
2022-10-31T11:44:13.068Z,203.29
2022-10-31T11:45:13.067Z,208.94
2022-10-31T11:46:13.088Z,232.94
2022-10-31T11:47:13.063Z,192
2022-10-31T11:48:13.071Z,200.47
2022-10-31T11:49:13.082Z,199.06
2022-10-31T11:50:13.071Z,199.06
2022-10-31T11:51:13.076Z,207.53
2022-10-31T11:52:13.062Z,223.06
2022-10-31T11:53:13.061Z,192
2022-10-31T11:54:13.079Z,249.88
2022-10-31T11:55:13.089Z,218.82
2022-10-31T11:56:13.068Z,223.06
2022-10-31T11:57:13.083Z,208.94
2022-10-31T11:58:13.082Z,203.29
2022-10-31T11:59:13.085Z,203.29
2022-10-31T12:00:13.098Z,203.29
2022-10-31T12:01:13.177Z,179.29
2022-10-31T12:02:13.180Z,184.94
2022-10-31T12:03:13.074Z,204.71
2022-10-31T12:04:13.082Z,201.88
2022-10-31T12:05:13.091Z,201.88
2022-10-31T12:06:13.091Z,201.88
2022-10-31T12:07:13.092Z,201.88
2022-10-31T12:08:13.086Z,201.88
2022-10-31T12:09:13.087Z,201.88
2022-10-31T12:10:13.093Z,201.88
2022-10-31T12:11:13.087Z,201.88
2022-10-31T12:12:13.094Z,201.88
2022-10-31T12:13:13.096Z,201.88
2022-10-31T12:14:13.099Z,214.59
2022-10-31T12:15:13.083Z,214.59
2022-10-31T12:16:13.096Z,214.59
2022-10-31T12:17:13.102Z,214.59
2022-10-31T12:18:13.120Z,214.59
2022-10-31T12:19:13.093Z,217.41
2022-10-31T12:20:13.096Z,217.41
2022-10-31T12:21:13.113Z,217.41
2022-10-31T12:22:13.106Z,217.41
2022-10-31T12:23:13.097Z,217.41
2022-10-31T12:24:13.096Z,201.88
2022-10-31T12:25:13.107Z,207.53
2022-10-31T12:26:13.105Z,197.65
2022-10-31T12:27:13.110Z,197.65
2022-10-31T12:28:13.112Z,192
2022-10-31T12:29:13.112Z,175.06
2022-10-31T12:30:13.108Z,175.06
2022-10-31T12:31:13.107Z,201.88
2022-10-31T12:32:13.111Z,194.82
2022-10-31T12:33:13.111Z,193.41
2022-10-31T12:34:13.140Z,193.41
2022-10-31T12:35:13.119Z,194.82
2022-10-31T12:36:15.136Z,201.88
2022-10-31T12:37:13.108Z,187.76